Gaz Venture — 3FLQ4 — position and weather

sailwx.info

Track history (hours):
 
Tides and Currents Weather Stations Pressure Air Temp Water Temp Dewpoint Dewpoint Depression Visibility Wind Speed Wind Dir Waves Ship Positions

Gaz Venture

Last reported at 2016-Jul-23 06:30 UTC. Time now 2016-Jul-23 21:17 UTC.
Position N 44°27' E 012°15'.

Length 120 m; draft 7.8 m.

Type: Tanker. MMSI: 356141000.

Date/timePositionNaut miles runAvg speedWind from/ knotsBaromVisibWave heightAir tempDewpointWater temp
2016-Jul-23 06:30N 44°27' E 012°15'0 0.0
2016-Jul-23 04:24N 44°27' E 012°15'0 0.0
2016-Jul-23 01:04N 44°27' E 012°15'0 0.0
2016-Jul-23 00:33N 44°27' E 012°15'0 0.0
2016-Jul-22 23:33N 44°27' E 012°15'0 0.0
2016-Jul-22 22:33N 44°27' E 012°15'4 4.2
2016-Jul-22 21:33N 44°30' E 012°20'5 4.6
2016-Jul-22 20:33N 44°30' E 012°26'0 0.0
2016-Jul-22 19:33N 44°30' E 012°26'0 0.0
2016-Jul-22 18:33N 44°30' E 012°26'0 0.0
2016-Jul-22 17:33N 44°30' E 012°26'0 0.0
2016-Jul-22 16:33N 44°30' E 012°26'0 0.0
2016-Jul-22 15:33N 44°30' E 012°26'0 0.0
2016-Jul-22 14:33N 44°30' E 012°26'0 0.0
2016-Jul-22 13:33N 44°30' E 012°26'0 0.0
2016-Jul-22 12:33N 44°30' E 012°26'0 0.0
2016-Jul-22 11:33N 44°30' E 012°26'0 0.0
2016-Jul-22 10:33N 44°30' E 012°26'0 0.0
2016-Jul-22 09:33N 44°30' E 012°26'0 0.0
2016-Jul-22 08:34N 44°30' E 012°26'0 0.0
2016-Jul-22 07:33N 44°30' E 012°26'0 0.0
2016-Jul-22 05:33N 44°30' E 012°26'0 0.0
2016-Jul-22 04:33N 44°30' E 012°26'0 0.0
2016-Jul-22 03:33N 44°30' E 012°26'0 0.0
2016-Jul-22 02:33N 44°30' E 012°26'0 0.0
2016-Jul-22 01:33N 44°30' E 012°26'0 0.0
2016-Jul-22 00:33N 44°30' E 012°26'0 0.0
2016-Jul-21 23:33N 44°30' E 012°26'0 0.1
2016-Jul-21 22:33N 44°30' E 012°26'0 0.0
2016-Jul-21 21:33N 44°30' E 012°26'0 0.0
2016-Jul-21 20:33N 44°30' E 012°26'0 0.0
2016-Jul-21 19:33N 44°30' E 012°26'0 0.0
2016-Jul-21 18:33N 44°30' E 012°26'0 0.0
2016-Jul-21 17:33N 44°30' E 012°26'0 0.0
2016-Jul-21 16:33N 44°30' E 012°26'0 0.0
2016-Jul-21 15:33N 44°30' E 012°26'0 0.0
2016-Jul-21 14:33N 44°30' E 012°26'0 0.0
2016-Jul-21 13:33N 44°30' E 012°26'0 0.0
2016-Jul-21 12:33N 44°30' E 012°26'0 0.0
2016-Jul-21 11:33N 44°30' E 012°26'0 0.0
2016-Jul-21 10:33N 44°30' E 012°26'0 0.0
2016-Jul-21 09:33N 44°30' E 012°26'0 0.0
2016-Jul-21 08:33N 44°30' E 012°26'0 0.0
2016-Jul-21 07:33N 44°30' E 012°26'0 0.0
2016-Jul-21 06:33N 44°30' E 012°26'0 0.0
2016-Jul-21 05:33N 44°30' E 012°26'0 0.0
2016-Jul-21 04:33N 44°30' E 012°26'0 0.0
2016-Jul-21 03:33N 44°30' E 012°26'8 7.6
2016-Jul-21 02:33N 44°27' E 012°36'1414.4
2016-Jul-21 01:34N 44°21' E 012°54'1413.8
2016-Jul-21 00:33N 44°18' E 013°13'1414.1
2016-Jul-20 23:33N 44°10' E 013°29'1414.2
2016-Jul-20 22:34N 44°01' E 013°44'1414.2
2016-Jul-20 21:33N 43°53' E 014°00'1614.5
2016-Jul-20 20:28N 43°42' E 014°17'2914.8
2016-Jul-20 18:31N 43°22' E 014°45'  
2016-Jul-15 05:27N 31°10' E 029°51'3 3.4
2016-Jul-15 04:33N 31°11' E 029°48'1 0.8
2016-Jul-15 03:33N 31°12' E 029°47'1010.5
2016-Jul-15 02:34N 31°22' E 029°46'2014.4
2016-Jul-15 01:11N 31°41' E 029°53'913.9
2016-Jul-15 00:33N 31°49' E 029°53'1515.3
2016-Jul-14 23:33N 32°04' E 029°56'2 2.2
2016-Jul-14 22:33N 32°05' E 029°53'8 8.1
2016-Jul-14 21:32N 32°12' E 029°58'1414.5
2016-Jul-14 20:33N 32°25' E 030°07'1515.2
2016-Jul-14 19:33N 32°35' E 030°20'1615.1
2016-Jul-14 18:31N 32°45' E 030°35'3015.0
2016-Jul-14 16:32N 33°03' E 031°02'1515.0
2016-Jul-14 15:32N 33°13' E 031°15'3114.7
2016-Jul-14 13:24N 33°33' E 031°44'1214.7
2016-Jul-14 12:34N 33°41' E 031°56'1514.6
2016-Jul-14 11:31N 33°51' E 032°10'1514.6
2016-Jul-14 10:30N 34°01' E 032°23'1414.8
2016-Jul-14 09:34N 34°10' E 032°36'1514.4
2016-Jul-14 08:33N 34°19' E 032°49'1514.9
2016-Jul-14 07:33N 34°29' E 033°03'1111.0
2016-Jul-14 06:31N 34°40' E 033°05'0 0.0
2016-Jul-14 05:31N 34°40' E 033°05'0 0.0
2016-Jul-14 04:31N 34°40' E 033°05'0 0.0
2016-Jul-14 03:19N 34°40' E 033°05'0 0.0
2016-Jul-14 02:28N 34°40' E 033°05'0 0.0
2016-Jul-14 01:31N 34°40' E 033°05'0 0.0
2016-Jul-14 00:31N 34°40' E 033°05'0 0.0
2016-Jul-13 23:10N 34°40' E 033°05'0 0.1
2016-Jul-13 21:17N 34°40' E 033°06'912.1
2016-Jul-13 20:30N 34°33' E 033°14'1313.7
2016-Jul-13 19:33N 34°28' E 033°28'1413.9
2016-Jul-13 18:33N 34°24' E 033°44'1514.1
2016-Jul-13 17:30N 34°19' E 034°02'1414.5
2016-Jul-13 16:33N 34°14' E 034°17'1414.5
2016-Jul-13 15:33N 34°10' E 034°34'1414.4
2016-Jul-13 14:33N 34°05' E 034°50'1515.0
2016-Jul-13 13:33N 33°59' E 035°07'1514.8
2016-Jul-13 12:33N 33°56' E 035°24'  
Track history (hours):
 
Tides and Currents Weather Stations Pressure Air Temp Water Temp Dewpoint Dewpoint Depression Visibility Wind Speed Wind Dir Waves Ship Positions

Gaz Venture

Last reported at 2016-Jul-23 06:30 UTC. Time now 2016-Jul-23 21:17 UTC.
Position N 44°27' E 012°15'.

Length 120 m; draft 7.8 m.

Type: Tanker. MMSI: 356141000.

Date/timePositionNaut miles runAvg speedWind from/ knotsBaromVisibWave heightAir tempDewpointWater temp
2016-Jul-23 06:30N 44°27' E 012°15'0 0.0
2016-Jul-23 04:24N 44°27' E 012°15'0 0.0
2016-Jul-23 01:04N 44°27' E 012°15'0 0.0
2016-Jul-23 00:33N 44°27' E 012°15'0 0.0
2016-Jul-22 23:33N 44°27' E 012°15'0 0.0
2016-Jul-22 22:33N 44°27' E 012°15'4 4.2
2016-Jul-22 21:33N 44°30' E 012°20'5 4.6
2016-Jul-22 20:33N 44°30' E 012°26'0 0.0
2016-Jul-22 19:33N 44°30' E 012°26'0 0.0
2016-Jul-22 18:33N 44°30' E 012°26'0 0.0
2016-Jul-22 17:33N 44°30' E 012°26'0 0.0
2016-Jul-22 16:33N 44°30' E 012°26'0 0.0
2016-Jul-22 15:33N 44°30' E 012°26'0 0.0
2016-Jul-22 14:33N 44°30' E 012°26'0 0.0
2016-Jul-22 13:33N 44°30' E 012°26'0 0.0
2016-Jul-22 12:33N 44°30' E 012°26'0 0.0
2016-Jul-22 11:33N 44°30' E 012°26'0 0.0
2016-Jul-22 10:33N 44°30' E 012°26'0 0.0
2016-Jul-22 09:33N 44°30' E 012°26'0 0.0
2016-Jul-22 08:34N 44°30' E 012°26'0 0.0
2016-Jul-22 07:33N 44°30' E 012°26'0 0.0
2016-Jul-22 05:33N 44°30' E 012°26'0 0.0
2016-Jul-22 04:33N 44°30' E 012°26'0 0.0
2016-Jul-22 03:33N 44°30' E 012°26'0 0.0
2016-Jul-22 02:33N 44°30' E 012°26'0 0.0
2016-Jul-22 01:33N 44°30' E 012°26'0 0.0
2016-Jul-22 00:33N 44°30' E 012°26'0 0.0
2016-Jul-21 23:33N 44°30' E 012°26'0 0.1
2016-Jul-21 22:33N 44°30' E 012°26'0 0.0
2016-Jul-21 21:33N 44°30' E 012°26'0 0.0
2016-Jul-21 20:33N 44°30' E 012°26'0 0.0
2016-Jul-21 19:33N 44°30' E 012°26'0 0.0
2016-Jul-21 18:33N 44°30' E 012°26'0 0.0
2016-Jul-21 17:33N 44°30' E 012°26'0 0.0
2016-Jul-21 16:33N 44°30' E 012°26'0 0.0
2016-Jul-21 15:33N 44°30' E 012°26'0 0.0
2016-Jul-21 14:33N 44°30' E 012°26'0 0.0
2016-Jul-21 13:33N 44°30' E 012°26'0 0.0
2016-Jul-21 12:33N 44°30' E 012°26'0 0.0
2016-Jul-21 11:33N 44°30' E 012°26'0 0.0
2016-Jul-21 10:33N 44°30' E 012°26'0 0.0
2016-Jul-21 09:33N 44°30' E 012°26'0 0.0
2016-Jul-21 08:33N 44°30' E 012°26'0 0.0
2016-Jul-21 07:33N 44°30' E 012°26'0 0.0
2016-Jul-21 06:33N 44°30' E 012°26'0 0.0
2016-Jul-21 05:33N 44°30' E 012°26'0 0.0
2016-Jul-21 04:33N 44°30' E 012°26'0 0.0
2016-Jul-21 03:33N 44°30' E 012°26'8 7.6
2016-Jul-21 02:33N 44°27' E 012°36'1414.4
2016-Jul-21 01:34N 44°21' E 012°54'1413.8
2016-Jul-21 00:33N 44°18' E 013°13'1414.1
2016-Jul-20 23:33N 44°10' E 013°29'1414.2
2016-Jul-20 22:34N 44°01' E 013°44'1414.2
2016-Jul-20 21:33N 43°53' E 014°00'1614.5
2016-Jul-20 20:28N 43°42' E 014°17'2914.8
2016-Jul-20 18:31N 43°22' E 014°45'  
2016-Jul-15 05:27N 31°10' E 029°51'3 3.4
2016-Jul-15 04:33N 31°11' E 029°48'1 0.8
2016-Jul-15 03:33N 31°12' E 029°47'1010.5
2016-Jul-15 02:34N 31°22' E 029°46'2014.4
2016-Jul-15 01:11N 31°41' E 029°53'913.9
2016-Jul-15 00:33N 31°49' E 029°53'1515.3
2016-Jul-14 23:33N 32°04' E 029°56'2 2.2
2016-Jul-14 22:33N 32°05' E 029°53'8 8.1
2016-Jul-14 21:32N 32°12' E 029°58'1414.5
2016-Jul-14 20:33N 32°25' E 030°07'1515.2
2016-Jul-14 19:33N 32°35' E 030°20'1615.1
2016-Jul-14 18:31N 32°45' E 030°35'3015.0
2016-Jul-14 16:32N 33°03' E 031°02'1515.0
2016-Jul-14 15:32N 33°13' E 031°15'3114.7
2016-Jul-14 13:24N 33°33' E 031°44'1214.7
2016-Jul-14 12:34N 33°41' E 031°56'1514.6
2016-Jul-14 11:31N 33°51' E 032°10'1514.6
2016-Jul-14 10:30N 34°01' E 032°23'1414.8
2016-Jul-14 09:34N 34°10' E 032°36'1514.4
2016-Jul-14 08:33N 34°19' E 032°49'1514.9
2016-Jul-14 07:33N 34°29' E 033°03'1111.0
2016-Jul-14 06:31N 34°40' E 033°05'0 0.0
2016-Jul-14 05:31N 34°40' E 033°05'0 0.0
2016-Jul-14 04:31N 34°40' E 033°05'0 0.0
2016-Jul-14 03:19N 34°40' E 033°05'0 0.0
2016-Jul-14 02:28N 34°40' E 033°05'0 0.0
2016-Jul-14 01:31N 34°40' E 033°05'0 0.0
2016-Jul-14 00:31N 34°40' E 033°05'0 0.0
2016-Jul-13 23:10N 34°40' E 033°05'0 0.1
2016-Jul-13 21:17N 34°40' E 033°06'912.1
2016-Jul-13 20:30N 34°33' E 033°14'1313.7
2016-Jul-13 19:33N 34°28' E 033°28'1413.9
2016-Jul-13 18:33N 34°24' E 033°44'1514.1
2016-Jul-13 17:30N 34°19' E 034°02'1414.5
2016-Jul-13 16:33N 34°14' E 034°17'1414.5
2016-Jul-13 15:33N 34°10' E 034°34'1414.4
2016-Jul-13 14:33N 34°05' E 034°50'1515.0
2016-Jul-13 13:33N 33°59' E 035°07'1514.8
2016-Jul-13 12:33N 33°56' E 035°24'  

Dump ship's entire track history